sensor_id;sensor_type;location;lat;lon;timestamp;P1;durP1;ratioP1;P2;durP2;ratioP2
29516;SDS011;40993;50.594;8.664;2023-08-12T00:00:02;7.20;;;3.75;;
29516;SDS011;40993;50.594;8.664;2023-08-12T00:02:38;6.22;;;3.70;;
29516;SDS011;40993;50.594;8.664;2023-08-12T00:05:06;10.52;;;3.88;;
29516;SDS011;40993;50.594;8.664;2023-08-12T00:07:34;5.88;;;4.22;;
29516;SDS011;40993;50.594;8.664;2023-08-12T00:10:02;8.93;;;4.43;;
29516;SDS011;40993;50.594;8.664;2023-08-12T00:12:32;6.68;;;3.95;;
29516;SDS011;40993;50.594;8.664;2023-08-12T00:15:00;7.57;;;4.35;;
29516;SDS011;40993;50.594;8.664;2023-08-12T00:17:28;8.30;;;4.25;;
29516;SDS011;40993;50.594;8.664;2023-08-12T00:19:55;9.52;;;4.05;;
29516;SDS011;40993;50.594;8.664;2023-08-12T00:22:23;8.00;;;4.22;;
29516;SDS011;40993;50.594;8.664;2023-08-12T00:24:50;9.50;;;4.10;;
29516;SDS011;40993;50.594;8.664;2023-08-12T00:27:18;7.63;;;4.03;;
29516;SDS011;40993;50.594;8.664;2023-08-12T00:29:47;10.10;;;3.97;;
29516;SDS011;40993;50.594;8.664;2023-08-12T00:32:15;6.13;;;4.70;;
29516;SDS011;40993;50.594;8.664;2023-08-12T00:34:42;7.15;;;3.80;;
29516;SDS011;40993;50.594;8.664;2023-08-12T00:37:10;7.75;;;3.75;;
29516;SDS011;40993;50.594;8.664;2023-08-12T00:39:38;7.53;;;3.90;;
29516;SDS011;40993;50.594;8.664;2023-08-12T00:42:05;7.00;;;4.32;;
29516;SDS011;40993;50.594;8.664;2023-08-12T00:44:33;6.30;;;3.90;;
29516;SDS011;40993;50.594;8.664;2023-08-12T00:47:02;8.93;;;4.10;;
29516;SDS011;40993;50.594;8.664;2023-08-12T00:49:30;11.07;;;3.83;;
29516;SDS011;40993;50.594;8.664;2023-08-12T00:51:58;7.95;;;4.32;;
29516;SDS011;40993;50.594;8.664;2023-08-12T00:54:26;7.07;;;4.28;;
29516;SDS011;40993;50.594;8.664;2023-08-12T00:56:55;7.97;;;4.18;;
29516;SDS011;40993;50.594;8.664;2023-08-12T00:59:22;7.45;;;4.45;;
29516;SDS011;40993;50.594;8.664;2023-08-12T01:01:50;8.40;;;4.00;;
29516;SDS011;40993;50.594;8.664;2023-08-12T01:04:20;8.82;;;4.15;;
29516;SDS011;40993;50.594;8.664;2023-08-12T01:06:49;6.75;;;4.38;;
29516;SDS011;40993;50.594;8.664;2023-08-12T01:09:17;11.95;;;5.00;;
29516;SDS011;40993;50.594;8.664;2023-08-12T01:11:46;8.35;;;4.85;;
29516;SDS011;40993;50.594;8.664;2023-08-12T01:14:17;10.52;;;4.95;;
29516;SDS011;40993;50.594;8.664;2023-08-12T01:16:49;7.13;;;4.50;;
29516;SDS011;40993;50.594;8.664;2023-08-12T01:19:23;6.55;;;4.07;;
29516;SDS011;40993;50.594;8.664;2023-08-12T01:21:57;10.32;;;4.90;;
29516;SDS011;40993;50.594;8.664;2023-08-12T01:24:27;9.35;;;4.60;;
29516;SDS011;40993;50.594;8.664;2023-08-12T01:27:02;7.05;;;4.72;;
29516;SDS011;40993;50.594;8.664;2023-08-12T01:29:31;9.95;;;4.45;;
29516;SDS011;40993;50.594;8.664;2023-08-12T01:32:00;13.70;;;4.88;;
29516;SDS011;40993;50.594;8.664;2023-08-12T01:34:33;8.15;;;4.78;;
29516;SDS011;40993;50.594;8.664;2023-08-12T01:37:06;8.00;;;4.70;;
29516;SDS011;40993;50.594;8.664;2023-08-12T01:39:39;7.72;;;4.85;;
29516;SDS011;40993;50.594;8.664;2023-08-12T01:42:07;6.72;;;4.28;;
29516;SDS011;40993;50.594;8.664;2023-08-12T01:44:36;9.73;;;4.80;;
29516;SDS011;40993;50.594;8.664;2023-08-12T01:47:03;9.00;;;4.20;;
29516;SDS011;40993;50.594;8.664;2023-08-12T01:49:31;10.30;;;5.22;;
29516;SDS011;40993;50.594;8.664;2023-08-12T01:51:59;8.10;;;4.72;;
29516;SDS011;40993;50.594;8.664;2023-08-12T01:54:26;9.20;;;4.90;;
29516;SDS011;40993;50.594;8.664;2023-08-12T01:57:01;9.88;;;4.88;;
29516;SDS011;40993;50.594;8.664;2023-08-12T01:59:29;7.63;;;4.50;;
29516;SDS011;40993;50.594;8.664;2023-08-12T02:01:56;7.85;;;4.75;;
29516;SDS011;40993;50.594;8.664;2023-08-12T02:04:24;9.43;;;4.75;;
29516;SDS011;40993;50.594;8.664;2023-08-12T02:06:53;9.90;;;4.95;;
29516;SDS011;40993;50.594;8.664;2023-08-12T02:09:20;10.52;;;4.97;;
29516;SDS011;40993;50.594;8.664;2023-08-12T02:11:48;8.73;;;4.50;;
29516;SDS011;40993;50.594;8.664;2023-08-12T02:14:17;9.30;;;4.80;;
29516;SDS011;40993;50.594;8.664;2023-08-12T02:16:45;7.63;;;4.80;;
29516;SDS011;40993;50.594;8.664;2023-08-12T02:19:12;8.80;;;5.00;;
29516;SDS011;40993;50.594;8.664;2023-08-12T02:21:40;9.25;;;5.18;;
29516;SDS011;40993;50.594;8.664;2023-08-12T02:24:07;5.78;;;4.38;;
29516;SDS011;40993;50.594;8.664;2023-08-12T02:26:36;8.45;;;5.15;;
29516;SDS011;40993;50.594;8.664;2023-08-12T02:29:04;7.55;;;4.90;;
29516;SDS011;40993;50.594;8.664;2023-08-12T02:31:33;8.48;;;5.30;;
29516;SDS011;40993;50.594;8.664;2023-08-12T02:34:01;8.95;;;5.20;;
29516;SDS011;40993;50.594;8.664;2023-08-12T02:36:28;8.32;;;4.85;;
29516;SDS011;40993;50.594;8.664;2023-08-12T02:38:56;13.27;;;5.05;;
29516;SDS011;40993;50.594;8.664;2023-08-12T02:41:23;10.80;;;4.78;;
29516;SDS011;40993;50.594;8.664;2023-08-12T02:43:51;9.68;;;4.90;;
29516;SDS011;40993;50.594;8.664;2023-08-12T02:46:18;6.88;;;5.10;;
29516;SDS011;40993;50.594;8.664;2023-08-12T02:48:47;8.15;;;5.28;;
29516;SDS011;40993;50.594;8.664;2023-08-12T02:51:15;8.07;;;5.45;;
29516;SDS011;40993;50.594;8.664;2023-08-12T02:53:42;10.57;;;4.97;;
29516;SDS011;40993;50.594;8.664;2023-08-12T02:56:10;9.77;;;5.50;;
29516;SDS011;40993;50.594;8.664;2023-08-12T02:58:37;9.95;;;5.10;;
29516;SDS011;40993;50.594;8.664;2023-08-12T03:01:05;6.85;;;4.75;;
29516;SDS011;40993;50.594;8.664;2023-08-12T03:03:32;9.13;;;5.10;;
29516;SDS011;40993;50.594;8.664;2023-08-12T03:06:01;9.60;;;5.10;;
29516;SDS011;40993;50.594;8.664;2023-08-12T03:08:29;10.07;;;5.10;;
29516;SDS011;40993;50.594;8.664;2023-08-12T03:10:57;8.73;;;4.72;;
29516;SDS011;40993;50.594;8.664;2023-08-12T03:13:25;9.70;;;5.15;;
29516;SDS011;40993;50.594;8.664;2023-08-12T03:15:53;10.73;;;4.97;;
29516;SDS011;40993;50.594;8.664;2023-08-12T03:18:21;8.25;;;4.70;;
29516;SDS011;40993;50.594;8.664;2023-08-12T03:20:49;8.60;;;4.65;;
29516;SDS011;40993;50.594;8.664;2023-08-12T03:23:18;9.77;;;5.28;;
29516;SDS011;40993;50.594;8.664;2023-08-12T03:25:46;11.45;;;4.70;;
29516;SDS011;40993;50.594;8.664;2023-08-12T03:28:14;9.98;;;4.88;;
29516;SDS011;40993;50.594;8.664;2023-08-12T03:30:42;10.32;;;4.95;;
29516;SDS011;40993;50.594;8.664;2023-08-12T03:33:09;7.30;;;4.53;;
29516;SDS011;40993;50.594;8.664;2023-08-12T03:35:37;10.65;;;4.65;;
29516;SDS011;40993;50.594;8.664;2023-08-12T03:38:05;9.60;;;4.95;;
29516;SDS011;40993;50.594;8.664;2023-08-12T03:40:33;7.28;;;5.00;;
29516;SDS011;40993;50.594;8.664;2023-08-12T03:43:05;7.80;;;4.90;;
29516;SDS011;40993;50.594;8.664;2023-08-12T03:45:32;9.18;;;5.00;;
29516;SDS011;40993;50.594;8.664;2023-08-12T03:48:00;7.55;;;4.97;;
29516;SDS011;40993;50.594;8.664;2023-08-12T03:50:27;8.60;;;4.97;;
29516;SDS011;40993;50.594;8.664;2023-08-12T03:52:55;8.43;;;4.65;;
29516;SDS011;40993;50.594;8.664;2023-08-12T03:55:22;11.27;;;5.13;;
29516;SDS011;40993;50.594;8.664;2023-08-12T03:57:51;10.18;;;5.32;;
29516;SDS011;40993;50.594;8.664;2023-08-12T04:00:19;10.07;;;5.43;;
29516;SDS011;40993;50.594;8.664;2023-08-12T04:02:52;7.47;;;4.75;;
29516;SDS011;40993;50.594;8.664;2023-08-12T04:05:20;6.93;;;5.00;;
29516;SDS011;40993;50.594;8.664;2023-08-12T04:07:47;9.05;;;5.03;;
29516;SDS011;40993;50.594;8.664;2023-08-12T04:10:15;7.97;;;5.00;;
29516;SDS011;40993;50.594;8.664;2023-08-12T04:12:43;8.23;;;5.30;;
29516;SDS011;40993;50.594;8.664;2023-08-12T04:15:12;7.03;;;4.70;;
29516;SDS011;40993;50.594;8.664;2023-08-12T04:17:40;8.38;;;5.03;;
29516;SDS011;40993;50.594;8.664;2023-08-12T04:20:08;9.48;;;5.15;;
29516;SDS011;40993;50.594;8.664;2023-08-12T04:22:36;9.05;;;4.80;;
29516;SDS011;40993;50.594;8.664;2023-08-12T04:25:04;8.57;;;5.30;;
29516;SDS011;40993;50.594;8.664;2023-08-12T04:27:33;10.70;;;4.93;;
29516;SDS011;40993;50.594;8.664;2023-08-12T04:30:01;7.40;;;5.20;;
29516;SDS011;40993;50.594;8.664;2023-08-12T04:32:30;11.02;;;4.95;;
29516;SDS011;40993;50.594;8.664;2023-08-12T04:34:58;11.18;;;4.82;;
29516;SDS011;40993;50.594;8.664;2023-08-12T04:37:26;7.43;;;4.85;;
29516;SDS011;40993;50.594;8.664;2023-08-12T04:39:54;9.02;;;5.10;;
29516;SDS011;40993;50.594;8.664;2023-08-12T04:42:22;6.13;;;4.72;;
29516;SDS011;40993;50.594;8.664;2023-08-12T04:44:50;9.93;;;4.88;;
29516;SDS011;40993;50.594;8.664;2023-08-12T04:47:17;8.20;;;5.15;;
29516;SDS011;40993;50.594;8.664;2023-08-12T04:49:46;10.18;;;4.93;;
29516;SDS011;40993;50.594;8.664;2023-08-12T04:52:14;11.65;;;4.82;;
29516;SDS011;40993;50.594;8.664;2023-08-12T04:54:41;12.55;;;5.20;;
29516;SDS011;40993;50.594;8.664;2023-08-12T04:57:09;8.93;;;4.78;;
29516;SDS011;40993;50.594;8.664;2023-08-12T04:59:37;11.05;;;4.55;;
29516;SDS011;40993;50.594;8.664;2023-08-12T05:02:05;7.35;;;4.88;;
29516;SDS011;40993;50.594;8.664;2023-08-12T05:04:33;9.65;;;5.15;;
29516;SDS011;40993;50.594;8.664;2023-08-12T05:07:02;7.88;;;4.30;;
29516;SDS011;40993;50.594;8.664;2023-08-12T05:09:29;10.10;;;5.25;;
29516;SDS011;40993;50.594;8.664;2023-08-12T05:11:57;11.13;;;4.80;;
29516;SDS011;40993;50.594;8.664;2023-08-12T05:14:24;6.03;;;4.80;;
29516;SDS011;40993;50.594;8.664;2023-08-12T05:16:52;7.38;;;4.50;;
29516;SDS011;40993;50.594;8.664;2023-08-12T05:19:19;10.88;;;4.78;;
29516;SDS011;40993;50.594;8.664;2023-08-12T05:21:47;7.82;;;4.68;;
29516;SDS011;40993;50.594;8.664;2023-08-12T05:24:16;14.13;;;5.43;;
29516;SDS011;40993;50.594;8.664;2023-08-12T05:26:44;8.38;;;4.65;;
29516;SDS011;40993;50.594;8.664;2023-08-12T05:29:11;7.55;;;4.68;;
29516;SDS011;40993;50.594;8.664;2023-08-12T05:31:38;8.45;;;4.78;;
29516;SDS011;40993;50.594;8.664;2023-08-12T05:34:06;9.63;;;4.93;;
29516;SDS011;40993;50.594;8.664;2023-08-12T05:36:33;8.00;;;4.65;;
29516;SDS011;40993;50.594;8.664;2023-08-12T05:39:01;8.50;;;4.90;;
29516;SDS011;40993;50.594;8.664;2023-08-12T05:41:30;9.88;;;4.45;;
29516;SDS011;40993;50.594;8.664;2023-08-12T05:43:58;7.40;;;4.30;;
29516;SDS011;40993;50.594;8.664;2023-08-12T05:46:25;10.70;;;4.20;;
29516;SDS011;40993;50.594;8.664;2023-08-12T05:48:53;9.73;;;4.53;;
29516;SDS011;40993;50.594;8.664;2023-08-12T05:51:20;8.43;;;4.15;;
29516;SDS011;40993;50.594;8.664;2023-08-12T05:53:48;6.57;;;3.95;;
29516;SDS011;40993;50.594;8.664;2023-08-12T05:56:16;8.57;;;4.03;;
29516;SDS011;40993;50.594;8.664;2023-08-12T05:58:45;10.20;;;4.07;;
29516;SDS011;40993;50.594;8.664;2023-08-12T06:01:12;9.80;;;4.05;;
29516;SDS011;40993;50.594;8.664;2023-08-12T06:03:39;8.40;;;3.88;;
29516;SDS011;40993;50.594;8.664;2023-08-12T06:06:07;7.30;;;3.85;;
29516;SDS011;40993;50.594;8.664;2023-08-12T06:08:34;9.68;;;4.20;;
29516;SDS011;40993;50.594;8.664;2023-08-12T06:11:02;10.30;;;4.25;;
29516;SDS011;40993;50.594;8.664;2023-08-12T06:13:29;5.53;;;3.90;;
29516;SDS011;40993;50.594;8.664;2023-08-12T06:15:58;8.43;;;3.97;;
29516;SDS011;40993;50.594;8.664;2023-08-12T06:18:26;9.73;;;4.28;;
29516;SDS011;40993;50.594;8.664;2023-08-12T06:20:53;8.40;;;4.38;;
29516;SDS011;40993;50.594;8.664;2023-08-12T06:23:20;6.75;;;4.32;;
29516;SDS011;40993;50.594;8.664;2023-08-12T06:25:50;9.00;;;4.32;;
29516;SDS011;40993;50.594;8.664;2023-08-12T06:28:17;9.70;;;4.28;;
29516;SDS011;40993;50.594;8.664;2023-08-12T06:30:45;11.85;;;4.20;;
29516;SDS011;40993;50.594;8.664;2023-08-12T06:33:15;8.82;;;4.60;;
29516;SDS011;40993;50.594;8.664;2023-08-12T06:35:43;9.07;;;4.00;;
29516;SDS011;40993;50.594;8.664;2023-08-12T06:38:14;9.52;;;4.40;;
29516;SDS011;40993;50.594;8.664;2023-08-12T06:40:41;7.53;;;4.18;;
29516;SDS011;40993;50.594;8.664;2023-08-12T06:43:09;9.10;;;4.38;;
29516;SDS011;40993;50.594;8.664;2023-08-12T06:45:36;7.45;;;4.10;;
29516;SDS011;40993;50.594;8.664;2023-08-12T06:48:04;12.70;;;4.18;;
29516;SDS011;40993;50.594;8.664;2023-08-12T06:50:33;9.15;;;4.25;;
29516;SDS011;40993;50.594;8.664;2023-08-12T06:53:01;6.85;;;4.25;;
29516;SDS011;40993;50.594;8.664;2023-08-12T06:55:28;18.85;;;4.70;;
29516;SDS011;40993;50.594;8.664;2023-08-12T06:57:56;8.13;;;4.32;;
29516;SDS011;40993;50.594;8.664;2023-08-12T07:00:23;21.83;;;5.72;;
29516;SDS011;40993;50.594;8.664;2023-08-12T07:02:50;14.05;;;4.57;;
29516;SDS011;40993;50.594;8.664;2023-08-12T07:05:18;6.85;;;3.80;;
29516;SDS011;40993;50.594;8.664;2023-08-12T07:07:47;11.80;;;4.55;;
29516;SDS011;40993;50.594;8.664;2023-08-12T07:10:14;7.13;;;4.30;;
29516;SDS011;40993;50.594;8.664;2023-08-12T07:12:42;7.78;;;4.60;;
29516;SDS011;40993;50.594;8.664;2023-08-12T07:15:10;7.95;;;4.32;;
29516;SDS011;40993;50.594;8.664;2023-08-12T07:17:38;8.43;;;4.75;;
29516;SDS011;40993;50.594;8.664;2023-08-12T07:20:06;7.70;;;4.13;;
29516;SDS011;40993;50.594;8.664;2023-08-12T07:22:34;7.47;;;4.07;;
29516;SDS011;40993;50.594;8.664;2023-08-12T07:25:03;10.07;;;4.30;;
29516;SDS011;40993;50.594;8.664;2023-08-12T07:27:31;9.85;;;4.47;;
29516;SDS011;40993;50.594;8.664;2023-08-12T07:29:58;7.40;;;4.03;;
29516;SDS011;40993;50.594;8.664;2023-08-12T07:32:25;8.20;;;4.20;;
29516;SDS011;40993;50.594;8.664;2023-08-12T07:34:53;6.22;;;3.80;;
29516;SDS011;40993;50.594;8.664;2023-08-12T07:37:20;7.78;;;4.07;;
29516;SDS011;40993;50.594;8.664;2023-08-12T07:39:48;6.90;;;4.00;;
29516;SDS011;40993;50.594;8.664;2023-08-12T07:42:16;6.15;;;3.80;;
29516;SDS011;40993;50.594;8.664;2023-08-12T07:44:45;10.35;;;4.20;;
29516;SDS011;40993;50.594;8.664;2023-08-12T07:47:12;10.82;;;4.00;;
29516;SDS011;40993;50.594;8.664;2023-08-12T07:49:42;11.07;;;4.50;;
29516;SDS011;40993;50.594;8.664;2023-08-12T07:52:09;9.93;;;4.30;;
29516;SDS011;40993;50.594;8.664;2023-08-12T07:54:37;10.32;;;4.10;;
29516;SDS011;40993;50.594;8.664;2023-08-12T07:57:04;8.32;;;4.28;;
29516;SDS011;40993;50.594;8.664;2023-08-12T07:59:33;6.28;;;3.83;;
29516;SDS011;40993;50.594;8.664;2023-08-12T08:02:01;9.80;;;4.45;;
29516;SDS011;40993;50.594;8.664;2023-08-12T08:04:28;8.20;;;4.35;;
29516;SDS011;40993;50.594;8.664;2023-08-12T08:06:57;8.43;;;4.40;;
29516;SDS011;40993;50.594;8.664;2023-08-12T08:09:24;9.23;;;4.07;;
29516;SDS011;40993;50.594;8.664;2023-08-12T08:11:51;11.40;;;4.22;;
29516;SDS011;40993;50.594;8.664;2023-08-12T08:14:22;10.65;;;3.85;;
29516;SDS011;40993;50.594;8.664;2023-08-12T08:16:51;8.60;;;4.20;;
29516;SDS011;40993;50.594;8.664;2023-08-12T08:19:18;7.57;;;4.10;;
29516;SDS011;40993;50.594;8.664;2023-08-12T08:21:46;7.22;;;3.97;;
29516;SDS011;40993;50.594;8.664;2023-08-12T08:24:13;9.73;;;4.13;;
29516;SDS011;40993;50.594;8.664;2023-08-12T08:26:41;7.13;;;4.22;;
29516;SDS011;40993;50.594;8.664;2023-08-12T08:29:08;7.15;;;4.10;;
29516;SDS011;40993;50.594;8.664;2023-08-12T08:31:36;8.05;;;3.92;;
29516;SDS011;40993;50.594;8.664;2023-08-12T08:34:05;7.90;;;4.30;;
29516;SDS011;40993;50.594;8.664;2023-08-12T08:36:33;8.98;;;3.97;;
29516;SDS011;40993;50.594;8.664;2023-08-12T08:39:00;12.43;;;4.13;;
29516;SDS011;40993;50.594;8.664;2023-08-12T08:41:29;6.65;;;4.72;;
29516;SDS011;40993;50.594;8.664;2023-08-12T08:43:58;9.23;;;4.53;;
29516;SDS011;40993;50.594;8.664;2023-08-12T08:46:29;7.32;;;4.10;;
29516;SDS011;40993;50.594;8.664;2023-08-12T08:48:57;7.75;;;4.18;;
29516;SDS011;40993;50.594;8.664;2023-08-12T08:51:27;9.82;;;3.90;;
29516;SDS011;40993;50.594;8.664;2023-08-12T08:53:56;8.85;;;4.72;;
29516;SDS011;40993;50.594;8.664;2023-08-12T08:56:29;10.13;;;4.53;;
29516;SDS011;40993;50.594;8.664;2023-08-12T08:58:57;10.05;;;4.25;;
29516;SDS011;40993;50.594;8.664;2023-08-12T09:01:25;7.72;;;4.47;;
29516;SDS011;40993;50.594;8.664;2023-08-12T09:03:54;12.23;;;4.50;;
29516;SDS011;40993;50.594;8.664;2023-08-12T09:06:22;8.75;;;4.78;;
